sensor_id;sensor_type;location;lat;lon;timestamp;pressure;altitude;pressure_sealevel;temperature;humidity
30343;BME280;17145;49.902;8.680;'2023-06-22 01:58:39';100050;;;23;51
30343;BME280;17145;49.902;8.680;'2023-06-22 02:01:07';100050;;;24;50
30343;BME280;17145;49.902;8.680;'2023-06-22 02:03:34';100050;;;23;51
30343;BME280;17145;49.902;8.680;'2023-06-22 02:06:01';100060;;;23;51
30343;BME280;17145;49.902;8.680;'2023-06-22 02:08:29';100060;;;23;52
30343;BME280;17145;49.902;8.680;'2023-06-22 02:10:56';100060;;;23;51
30343;BME280;17145;49.902;8.680;'2023-06-22 02:13:23';100060;;;23;52
30343;BME280;17145;49.902;8.680;'2023-06-22 02:15:51';100070;;;23;51
30343;BME280;17145;49.902;8.680;'2023-06-22 02:18:18';100070;;;24;51
30343;BME280;17145;49.902;8.680;'2023-06-22 02:20:46';100070;;;24;51
30343;BME280;17145;49.902;8.680;'2023-06-22 02:23:14';100070;;;23;52
30343;BME280;17145;49.902;8.680;'2023-06-22 02:25:41';100080;;;23;51
30343;BME280;17145;49.902;8.680;'2023-06-22 02:28:08';100100;;;23;51
30343;BME280;17145;49.902;8.680;'2023-06-22 02:30:36';100120;;;23;51
30343;BME280;17145;49.902;8.680;'2023-06-22 02:33:03';100140;;;23;51
30343;BME280;17145;49.902;8.680;'2023-06-22 02:35:31';100160;;;23;51
30343;BME280;17145;49.902;8.680;'2023-06-22 02:38:00';100170;;;23;52
30343;BME280;17145;49.902;8.680;'2023-06-22 02:40:28';100180;;;23;51
30343;BME280;17145;49.902;8.680;'2023-06-22 02:42:56';100180;;;23;52
30343;BME280;17145;49.902;8.680;'2023-06-22 02:45:24';100190;;;23;51
30343;BME280;17145;49.902;8.680;'2023-06-22 02:47:52';100200;;;23;52
30343;BME280;17145;49.902;8.680;'2023-06-22 02:50:22';100200;;;23;52
30343;BME280;17145;49.902;8.680;'2023-06-22 02:52:52';100200;;;23;52
30343;BME280;17145;49.902;8.680;'2023-06-22 02:55:21';100180;;;23;52
30343;BME280;17145;49.902;8.680;'2023-06-22 02:57:49';100180;;;23;52
30343;BME280;17145;49.902;8.680;'2023-06-22 03:00:17';100210;;;23;52
30343;BME280;17145;49.902;8.680;'2023-06-22 03:02:46';100260;;;23;52
30343;BME280;17145;49.902;8.680;'2023-06-22 03:05:14';100290;;;23;52
30343;BME280;17145;49.902;8.680;'2023-06-22 03:07:52';100310;;;23;52
30343;BME280;17145;49.902;8.680;'2023-06-22 03:10:27';100340;;;23;53
30343;BME280;17145;49.902;8.680;'2023-06-22 03:13:01';100350;;;23;53
30343;BME280;17145;49.902;8.680;'2023-06-22 03:15:33';100350;;;23;53
30343;BME280;17145;49.902;8.680;'2023-06-22 03:18:03';100360;;;23;54
30343;BME280;17145;49.902;8.680;'2023-06-22 03:20:34';100340;;;23;54
30343;BME280;17145;49.902;8.680;'2023-06-22 03:23:11';100260;;;23;54
30343;BME280;17145;49.902;8.680;'2023-06-22 03:28:24';100010;;;23;54
30343;BME280;17145;49.902;8.680;'2023-06-22 03:30:52';99930;;;23;54
30343;BME280;17145;49.902;8.680;'2023-06-22 03:33:20';99940;;;23;54
30343;BME280;17145;49.902;8.680;'2023-06-22 03:35:48';99940;;;23;54
30343;BME280;17145;49.902;8.680;'2023-06-22 03:38:16';99960;;;23;54
30343;BME280;17145;49.902;8.680;'2023-06-22 03:40:44';99990;;;23;54
30343;BME280;17145;49.902;8.680;'2023-06-22 03:43:11';100020;;;23;54
30343;BME280;17145;49.902;8.680;'2023-06-22 03:45:39';100050;;;23;54
30343;BME280;17145;49.902;8.680;'2023-06-22 03:48:07';100070;;;23;54
30343;BME280;17145;49.902;8.680;'2023-06-22 03:50:35';100090;;;23;54
30343;BME280;17145;49.902;8.680;'2023-06-22 03:53:02';100100;;;23;54
30343;BME280;17145;49.902;8.680;'2023-06-22 03:55:29';100100;;;23;55
30343;BME280;17145;49.902;8.680;'2023-06-22 03:57:57';100090;;;22;55
30343;BME280;17145;49.902;8.680;'2023-06-22 04:00:28';100080;;;22;55
30343;BME280;17145;49.902;8.680;'2023-06-22 04:05:30';100090;;;22;56
30343;BME280;17145;49.902;8.680;'2023-06-22 04:08:02';100090;;;22;56
30343;BME280;17145;49.902;8.680;'2023-06-22 04:10:31';100100;;;22;56
30343;BME280;17145;49.902;8.680;'2023-06-22 04:13:00';100090;;;22;56
30343;BME280;17145;49.902;8.680;'2023-06-22 04:15:28';100100;;;22;56
30343;BME280;17145;49.902;8.680;'2023-06-22 04:17:56';100100;;;22;57
30343;BME280;17145;49.902;8.680;'2023-06-22 04:20:24';100100;;;22;56
30343;BME280;17145;49.902;8.680;'2023-06-22 04:22:52';100100;;;22;56
30343;BME280;17145;49.902;8.680;'2023-06-22 04:25:19';100100;;;22;56
30343;BME280;17145;49.902;8.680;'2023-06-22 04:27:47';100090;;;22;57
30343;BME280;17145;49.902;8.680;'2023-06-22 04:30:15';100080;;;22;57
30343;BME280;17145;49.902;8.680;'2023-06-22 04:32:42';100080;;;22;57
30343;BME280;17145;49.902;8.680;'2023-06-22 04:35:09';100090;;;22;57
30343;BME280;17145;49.902;8.680;'2023-06-22 04:37:38';100090;;;22;57
30343;BME280;17145;49.902;8.680;'2023-06-22 04:40:07';100090;;;22;57
30343;BME280;17145;49.902;8.680;'2023-06-22 04:42:34';100090;;;22;57
30343;BME280;17145;49.902;8.680;'2023-06-22 04:45:02';100090;;;22;57
30343;BME280;17145;49.902;8.680;'2023-06-22 04:47:30';100090;;;22;56
30343;BME280;17145;49.902;8.680;'2023-06-22 04:49:57';100100;;;22;56
30343;BME280;17145;49.902;8.680;'2023-06-22 04:52:24';100090;;;22;56
30343;BME280;17145;49.902;8.680;'2023-06-22 04:54:52';100090;;;22;56
30343;BME280;17145;49.902;8.680;'2023-06-22 04:57:19';100080;;;22;56
30343;BME280;17145;49.902;8.680;'2023-06-22 04:59:47';100080;;;22;56
30343;BME280;17145;49.902;8.680;'2023-06-22 05:02:14';100080;;;22;56
30343;BME280;17145;49.902;8.680;'2023-06-22 05:04:41';100100;;;22;56
30343;BME280;17145;49.902;8.680;'2023-06-22 05:07:09';100090;;;22;56
30343;BME280;17145;49.902;8.680;'2023-06-22 05:09:36';100090;;;22;56
30343;BME280;17145;49.902;8.680;'2023-06-22 05:12:04';100080;;;21;56
30343;BME280;17145;49.902;8.680;'2023-06-22 05:14:31';100070;;;22;56
30343;BME280;17145;49.902;8.680;'2023-06-22 05:16:59';100060;;;22;56
30343;BME280;17145;49.902;8.680;'2023-06-22 05:19:26';100070;;;22;56
30343;BME280;17145;49.902;8.680;'2023-06-22 05:21:54';100060;;;22;56
30343;BME280;17145;49.902;8.680;'2023-06-22 05:24:21';100060;;;22;55
30343;BME280;17145;49.902;8.680;'2023-06-22 05:26:48';100060;;;22;56
30343;BME280;17145;49.902;8.680;'2023-06-22 05:29:16';100060;;;22;56
30343;BME280;17145;49.902;8.680;'2023-06-22 05:31:43';100070;;;22;56
30343;BME280;17145;49.902;8.680;'2023-06-22 05:34:10';100070;;;22;56
30343;BME280;17145;49.902;8.680;'2023-06-22 05:36:38';100070;;;21;56
30343;BME280;17145;49.902;8.680;'2023-06-22 05:39:05';100070;;;22;56
30343;BME280;17145;49.902;8.680;'2023-06-22 05:41:33';100070;;;22;56
30343;BME280;17145;49.902;8.680;'2023-06-22 05:44:00';100070;;;22;56
30343;BME280;17145;49.902;8.680;'2023-06-22 05:46:27';100060;;;22;56
30343;BME280;17145;49.902;8.680;'2023-06-22 05:48:55';100060;;;21;56
30343;BME280;17145;49.902;8.680;'2023-06-22 05:51:22';100070;;;21;56
30343;BME280;17145;49.902;8.680;'2023-06-22 05:53:50';100070;;;22;56
30343;BME280;17145;49.902;8.680;'2023-06-22 05:56:17';100070;;;21;56
30343;BME280;17145;49.902;8.680;'2023-06-22 05:58:44';100060;;;22;56
30343;BME280;17145;49.902;8.680;'2023-06-22 06:01:12';100060;;;21;56
30343;BME280;17145;49.902;8.680;'2023-06-22 06:03:41';100070;;;22;56
30343;BME280;17145;49.902;8.680;'2023-06-22 06:06:08';100070;;;22;56
30343;BME280;17145;49.902;8.680;'2023-06-22 06:08:36';100070;;;22;56
30343;BME280;17145;49.902;8.680;'2023-06-22 06:11:03';100070;;;22;57
30343;BME280;17145;49.902;8.680;'2023-06-22 06:13:30';100070;;;22;57
30343;BME280;17145;49.902;8.680;'2023-06-22 06:15:58';100070;;;22;57
30343;BME280;17145;49.902;8.680;'2023-06-22 06:18:25';100070;;;22;57
30343;BME280;17145;49.902;8.680;'2023-06-22 06:20:52';100070;;;22;57
30343;BME280;17145;49.902;8.680;'2023-06-22 06:23:20';100070;;;22;57
30343;BME280;17145;49.902;8.680;'2023-06-22 06:25:47';100060;;;22;57
30343;BME280;17145;49.902;8.680;'2023-06-22 06:28:14';100060;;;22;57
30343;BME280;17145;49.902;8.680;'2023-06-22 06:30:42';100060;;;22;56
30343;BME280;17145;49.902;8.680;'2023-06-22 06:33:09';100060;;;22;57
30343;BME280;17145;49.902;8.680;'2023-06-22 06:35:37';100050;;;22;57
30343;BME280;17145;49.902;8.680;'2023-06-22 06:38:04';100050;;;22;56
30343;BME280;17145;49.902;8.680;'2023-06-22 06:40:31';100050;;;22;56
30343;BME280;17145;49.902;8.680;'2023-06-22 06:42:59';100060;;;22;57
30343;BME280;17145;49.902;8.680;'2023-06-22 06:45:26';100060;;;22;56
30343;BME280;17145;49.902;8.680;'2023-06-22 06:47:54';100060;;;22;56
30343;BME280;17145;49.902;8.680;'2023-06-22 06:50:21';100060;;;22;56
30343;BME280;17145;49.902;8.680;'2023-06-22 06:52:49';100050;;;22;56
30343;BME280;17145;49.902;8.680;'2023-06-22 06:55:17';100050;;;22;56
30343;BME280;17145;49.902;8.680;'2023-06-22 06:57:45';100050;;;22;56
30343;BME280;17145;49.902;8.680;'2023-06-22 07:00:13';100050;;;22;56
30343;BME280;17145;49.902;8.680;'2023-06-22 07:02:41';100060;;;22;56
30343;BME280;17145;49.902;8.680;'2023-06-22 07:05:08';100050;;;22;56
30343;BME280;17145;49.902;8.680;'2023-06-22 07:07:36';100050;;;22;56
30343;BME280;17145;49.902;8.680;'2023-06-22 07:10:04';100050;;;22;56
30343;BME280;17145;49.902;8.680;'2023-06-22 07:12:32';100050;;;22;56
30343;BME280;17145;49.902;8.680;'2023-06-22 07:14:59';100050;;;22;55
30343;BME280;17145;49.902;8.680;'2023-06-22 07:17:26';100040;;;22;56
30343;BME280;17145;49.902;8.680;'2023-06-22 07:19:54';100040;;;22;56
30343;BME280;17145;49.902;8.680;'2023-06-22 07:22:21';100040;;;22;56
30343;BME280;17145;49.902;8.680;'2023-06-22 07:24:49';100040;;;22;56
30343;BME280;17145;49.902;8.680;'2023-06-22 07:27:17';100040;;;22;56
30343;BME280;17145;49.902;8.680;'2023-06-22 07:29:44';100030;;;22;56
30343;BME280;17145;49.902;8.680;'2023-06-22 07:32:11';100030;;;22;56
30343;BME280;17145;49.902;8.680;'2023-06-22 07:34:39';100030;;;22;55
30343;BME280;17145;49.902;8.680;'2023-06-22 07:37:06';100030;;;22;55
30343;BME280;17145;49.902;8.680;'2023-06-22 07:39:33';100030;;;22;56
30343;BME280;17145;49.902;8.680;'2023-06-22 07:42:01';100030;;;22;56
30343;BME280;17145;49.902;8.680;'2023-06-22 07:44:28';100030;;;22;55
30343;BME280;17145;49.902;8.680;'2023-06-22 07:46:56';100030;;;23;56
30343;BME280;17145;49.902;8.680;'2023-06-22 07:49:23';100030;;;22;55
30343;BME280;17145;49.902;8.680;'2023-06-22 07:51:50';100020;;;23;55
30343;BME280;17145;49.902;8.680;'2023-06-22 07:54:18';100020;;;23;55
30343;BME280;17145;49.902;8.680;'2023-06-22 07:56:45';100020;;;22;55
30343;BME280;17145;49.902;8.680;'2023-06-22 07:59:13';100020;;;23;55
30343;BME280;17145;49.902;8.680;'2023-06-22 08:01:40';100020;;;23;55
30343;BME280;17145;49.902;8.680;'2023-06-22 08:04:07';100020;;;23;55
30343;BME280;17145;49.902;8.680;'2023-06-22 08:06:35';100010;;;23;55
30343;BME280;17145;49.902;8.680;'2023-06-22 08:09:02';100000;;;23;55
30343;BME280;17145;49.902;8.680;'2023-06-22 08:11:30';100010;;;23;55
30343;BME280;17145;49.902;8.680;'2023-06-22 08:13:57';100010;;;23;55
30343;BME280;17145;49.902;8.680;'2023-06-22 08:16:25';100010;;;23;55
30343;BME280;17145;49.902;8.680;'2023-06-22 08:18:52';100010;;;23;54
30343;BME280;17145;49.902;8.680;'2023-06-22 08:21:20';100010;;;23;55
30343;BME280;17145;49.902;8.680;'2023-06-22 08:23:47';100010;;;23;54
30343;BME280;17145;49.902;8.680;'2023-06-22 08:26:14';100010;;;23;54
30343;BME280;17145;49.902;8.680;'2023-06-22 08:28:42';100010;;;23;54
30343;BME280;17145;49.902;8.680;'2023-06-22 08:31:09';100000;;;23;54
30343;BME280;17145;49.902;8.680;'2023-06-22 08:33:37';100000;;;24;54
30343;BME280;17145;49.902;8.680;'2023-06-22 08:36:05';100000;;;24;53
30343;BME280;17145;49.902;8.680;'2023-06-22 08:38:32';100000;;;24;53
30343;BME280;17145;49.902;8.680;'2023-06-22 08:40:59';100010;;;24;53
30343;BME280;17145;49.902;8.680;'2023-06-22 08:43:27';100010;;;24;53
30343;BME280;17145;49.902;8.680;'2023-06-22 08:45:54';100010;;;24;52
30343;BME280;17145;49.902;8.680;'2023-06-22 08:48:21';100010;;;24;52
30343;BME280;17145;49.902;8.680;'2023-06-22 08:50:49';100000;;;24;52
30343;BME280;17145;49.902;8.680;'2023-06-22 08:53:16';100000;;;24;52
30343;BME280;17145;49.902;8.680;'2023-06-22 08:55:44';99990;;;24;52
30343;BME280;17145;49.902;8.680;'2023-06-22 08:58:11';100000;;;24;52
30343;BME280;17145;49.902;8.680;'2023-06-22 09:00:38';100000;;;24;51
30343;BME280;17145;49.902;8.680;'2023-06-22 09:03:06';99990;;;24;51
30343;BME280;17145;49.902;8.680;'2023-06-22 09:05:33';100000;;;25;51
30343;BME280;17145;49.902;8.680;'2023-06-22 09:08:01';99990;;;24;51
30343;BME280;17145;49.902;8.680;'2023-06-22 09:10:28';99980;;;24;51
30343;BME280;17145;49.902;8.680;'2023-06-22 09:12:56';99980;;;24;51
30343;BME280;17145;49.902;8.680;'2023-06-22 09:15:23';99970;;;25;50
30343;BME280;17145;49.902;8.680;'2023-06-22 09:17:51';99970;;;24;50
30343;BME280;17145;49.902;8.680;'2023-06-22 09:20:18';99970;;;25;50
30343;BME280;17145;49.902;8.680;'2023-06-22 09:22:46';99970;;;25;50
30343;BME280;17145;49.902;8.680;'2023-06-22 09:25:13';99970;;;25;50
30343;BME280;17145;49.902;8.680;'2023-06-22 09:27:45';99980;;;25;50
30343;BME280;17145;49.902;8.680;'2023-06-22 09:30:12';99980;;;25;49
30343;BME280;17145;49.902;8.680;'2023-06-22 09:32:40';99980;;;25;50
30343;BME280;17145;49.902;8.680;'2023-06-22 09:35:08';99970;;;25;49
30343;BME280;17145;49.902;8.680;'2023-06-22 09:37:35';99970;;;25;49
30343;BME280;17145;49.902;8.680;'2023-06-22 09:40:04';99970;;;25;49
30343;BME280;17145;49.902;8.680;'2023-06-22 09:42:31';99970;;;25;49
30343;BME280;17145;49.902;8.680;'2023-06-22 09:44:59';99970;;;25;49
30343;BME280;17145;49.902;8.680;'2023-06-22 09:47:26';99960;;;25;49
30343;BME280;17145;49.902;8.680;'2023-06-22 09:49:53';99960;;;25;48
30343;BME280;17145;49.902;8.680;'2023-06-22 09:52:21';99960;;;25;48
30343;BME280;17145;49.902;8.680;'2023-06-22 09:54:48';99970;;;25;48
30343;BME280;17145;49.902;8.680;'2023-06-22 09:57:16';99970;;;25;48
30343;BME280;17145;49.902;8.680;'2023-06-22 09:59:43';99970;;;25;48
30343;BME280;17145;49.902;8.680;'2023-06-22 10:02:10';99980;;;25;48
30343;BME280;17145;49.902;8.680;'2023-06-22 10:04:38';99970;;;26;48
30343;BME280;17145;49.902;8.680;'2023-06-22 10:07:05';99970;;;26;47
30343;BME280;17145;49.902;8.680;'2023-06-22 10:09:33';99970;;;25;48
30343;BME280;17145;49.902;8.680;'2023-06-22 10:12:01';99960;;;26;47
30343;BME280;17145;49.902;8.680;'2023-06-22 10:14:30';99960;;;26;47
30343;BME280;17145;49.902;8.680;'2023-06-22 10:16:57';99960;;;26;46
30343;BME280;17145;49.902;8.680;'2023-06-22 10:19:24';99950;;;26;46
30343;BME280;17145;49.902;8.680;'2023-06-22 10:21:52';99950;;;26;46
30343;BME280;17145;49.902;8.680;'2023-06-22 10:24:19';99950;;;26;46
30343;BME280;17145;49.902;8.680;'2023-06-22 10:26:46';99940;;;26;46
30343;BME280;17145;49.902;8.680;'2023-06-22 10:29:13';99930;;;26;45
30343;BME280;17145;49.902;8.680;'2023-06-22 10:31:41';99930;;;26;45
30343;BME280;17145;49.902;8.680;'2023-06-22 10:34:08';99930;;;27;45
30343;BME280;17145;49.902;8.680;'2023-06-22 10:36:35';99920;;;26;45
30343;BME280;17145;49.902;8.680;'2023-06-22 10:39:03';99920;;;26;45
30343;BME280;17145;49.902;8.680;'2023-06-22 10:41:31';99920;;;27;44
30343;BME280;17145;49.902;8.680;'2023-06-22 10:43:58';99920;;;27;44
30343;BME280;17145;49.902;8.680;'2023-06-22 10:46:25';99920;;;27;44
30343;BME280;17145;49.902;8.680;'2023-06-22 10:48:53';99920;;;27;44
30343;BME280;17145;49.902;8.680;'2023-06-22 10:51:20';99910;;;27;44
30343;BME280;17145;49.902;8.680;'2023-06-22 10:53:48';99920;;;27;44
30343;BME280;17145;49.902;8.680;'2023-06-22 10:56:15';99910;;;27;44
30343;BME280;17145;49.902;8.680;'2023-06-22 10:58:43';99910;;;27;43
30343;BME280;17145;49.902;8.680;'2023-06-22 11:01:10';99920;;;27;43
30343;BME280;17145;49.902;8.680;'2023-06-22 11:03:37';99930;;;27;43
30343;BME280;17145;49.902;8.680;'2023-06-22 11:06:05';99920;;;28;43
30343;BME280;17145;49.902;8.680;'2023-06-22 11:08:32';99910;;;27;42
30343;BME280;17145;49.902;8.680;'2023-06-22 11:13:29';99910;;;28;43
30343;BME280;17145;49.902;8.680;'2023-06-22 11:15:56';99900;;;28;42
30343;BME280;17145;49.902;8.680;'2023-06-22 11:18:23';99900;;;27;42
30343;BME280;17145;49.902;8.680;'2023-06-22 11:20:51';99890;;;28;42
30343;BME280;17145;49.902;8.680;'2023-06-22 11:23:18';99880;;;28;42
30343;BME280;17145;49.902;8.680;'2023-06-22 11:25:46';99880;;;28;42
30343;BME280;17145;49.902;8.680;'2023-06-22 11:28:13';99870;;;28;41
30343;BME280;17145;49.902;8.680;'2023-06-22 11:30:40';99880;;;28;41
30343;BME280;17145;49.902;8.680;'2023-06-22 11:33:07';99880;;;28;41
30343;BME280;17145;49.902;8.680;'2023-06-22 11:35:35';99880;;;28;40
30343;BME280;17145;49.902;8.680;'2023-06-22 11:38:02';99880;;;28;40
30343;BME280;17145;49.902;8.680;'2023-06-22 11:40:30';99880;;;28;41
30343;BME280;17145;49.902;8.680;'2023-06-22 11:42:57';99880;;;28;40
30343;BME280;17145;49.902;8.680;'2023-06-22 11:45:24';99870;;;28;40
30343;BME280;17145;49.902;8.680;'2023-06-22 11:47:52';99870;;;28;39
30343;BME280;17145;49.902;8.680;'2023-06-22 11:50:19';99870;;;28;40
30343;BME280;17145;49.902;8.680;'2023-06-22 11:52:47';99880;;;28;39
30343;BME280;17145;49.902;8.680;'2023-06-22 11:55:14';99870;;;29;39
30343;BME280;17145;49.902;8.680;'2023-06-22 11:57:42';99870;;;28;38
30343;BME280;17145;49.902;8.680;'2023-06-22 12:00:11';99860;;;29;38
30343;BME280;17145;49.902;8.680;'2023-06-22 12:02:39';99850;;;29;38
30343;BME280;17145;49.902;8.680;'2023-06-22 12:05:07';99850;;;29;38
30343;BME280;17145;49.902;8.680;'2023-06-22 12:07:34';99830;;;29;38
30343;BME280;17145;49.902;8.680;'2023-06-22 12:10:02';99830;;;29;37
30343;BME280;17145;49.902;8.680;'2023-06-22 12:12:29';99820;;;29;38
30343;BME280;17145;49.902;8.680;'2023-06-22 12:14:56';99820;;;29;38
30343;BME280;17145;49.902;8.680;'2023-06-22 12:17:24';99820;;;29;38
30343;BME280;17145;49.902;8.680;'2023-06-22 12:19:51';99810;;;29;37
30343;BME280;17145;49.902;8.680;'2023-06-22 12:22:18';99810;;;29;38
30343;BME280;17145;49.902;8.680;'2023-06-22 12:24:46';99800;;;29;37
30343;BME280;17145;49.902;8.680;'2023-06-22 12:27:13';99800;;;30;37
30343;BME280;17145;49.902;8.680;'2023-06-22 12:29:41';99800;;;30;37
30343;BME280;17145;49.902;8.680;'2023-06-22 12:32:09';99800;;;30;36
30343;BME280;17145;49.902;8.680;'2023-06-22 12:34:36';99790;;;30;35
30343;BME280;17145;49.902;8.680;'2023-06-22 12:37:04';99790;;;30;37
30343;BME280;17145;49.902;8.680;'2023-06-22 12:39:31';99780;;;30;36
30343;BME280;17145;49.902;8.680;'2023-06-22 12:41:58';99770;;;30;36
30343;BME280;17145;49.902;8.680;'2023-06-22 12:44:26';99770;;;29;37
30343;BME280;17145;49.902;8.680;'2023-06-22 12:46:53';99770;;;30;36
30343;BME280;17145;49.902;8.680;'2023-06-22 12:49:20';99760;;;30;36
30343;BME280;17145;49.902;8.680;'2023-06-22 12:51:48';99760;;;30;36
30343;BME280;17145;49.902;8.680;'2023-06-22 12:54:15';99760;;;30;35
30343;BME280;17145;49.902;8.680;'2023-06-22 12:56:43';99750;;;30;35
30343;BME280;17145;49.902;8.680;'2023-06-22 12:59:10';99740;;;30;36
30343;BME280;17145;49.902;8.680;'2023-06-22 13:01:37';99740;;;30;35
30343;BME280;17145;49.902;8.680;'2023-06-22 13:04:05';99720;;;30;35
30343;BME280;17145;49.902;8.680;'2023-06-22 13:06:32';99720;;;31;35
30343;BME280;17145;49.902;8.680;'2023-06-22 13:09:00';99720;;;31;35
30343;BME280;17145;49.902;8.680;'2023-06-22 13:11:27';99720;;;31;34
30343;BME280;17145;49.902;8.680;'2023-06-22 13:13:55';99720;;;31;34
30343;BME280;17145;49.902;8.680;'2023-06-22 13:16:22';99720;;;31;33
30343;BME280;17145;49.902;8.680;'2023-06-22 13:18:49';99710;;;31;33
30343;BME280;17145;49.902;8.680;'2023-06-22 13:21:17';99700;;;31;34
30343;BME280;17145;49.902;8.680;'2023-06-22 13:23:45';99700;;;31;34
30343;BME280;17145;49.902;8.680;'2023-06-22 13:26:13';99690;;;32;33
30343;BME280;17145;49.902;8.680;'2023-06-22 13:28:40';99700;;;32;33
30343;BME280;17145;49.902;8.680;'2023-06-22 13:31:07';99700;;;32;33
30343;BME280;17145;49.902;8.680;'2023-06-22 13:33:35';99690;;;32;33
30343;BME280;17145;49.902;8.680;'2023-06-22 13:36:03';99690;;;32;33
30343;BME280;17145;49.902;8.680;'2023-06-22 13:38:30';99690;;;32;34
30343;BME280;17145;49.902;8.680;'2023-06-22 13:40:58';99690;;;32;33
30343;BME280;17145;49.902;8.680;'2023-06-22 13:43:25';99690;;;32;33
30343;BME280;17145;49.902;8.680;'2023-06-22 13:45:53';99680;;;32;33
30343;BME280;17145;49.902;8.680;'2023-06-22 13:48:20';99680;;;32;33
30343;BME280;17145;49.902;8.680;'2023-06-22 13:50:47';99680;;;32;33
30343;BME280;17145;49.902;8.680;'2023-06-22 13:53:14';99680;;;32;33
30343;BME280;17145;49.902;8.680;'2023-06-22 13:55:42';99670;;;32;33
30343;BME280;17145;49.902;8.680;'2023-06-22 13:58:09';99670;;;32;32
30343;BME280;17145;49.902;8.680;'2023-06-22 14:00:37';99670;;;32;32
30343;BME280;17145;49.902;8.680;'2023-06-22 14:03:04';99650;;;32;32
30343;BME280;17145;49.902;8.680;'2023-06-22 14:05:32';99650;;;32;32
30343;BME280;17145;49.902;8.680;'2023-06-22 14:07:59';99640;;;32;32
30343;BME280;17145;49.902;8.680;'2023-06-22 14:10:27';99650;;;32;32
30343;BME280;17145;49.902;8.680;'2023-06-22 14:12:54';99660;;;32;32
30343;BME280;17145;49.902;8.680;'2023-06-22 14:15:21';99660;;;32;32
30343;BME280;17145;49.902;8.680;'2023-06-22 14:17:49';99660;;;32;33
30343;BME280;17145;49.902;8.680;'2023-06-22 14:20:16';99650;;;32;32
30343;BME280;17145;49.902;8.680;'2023-06-22 14:22:44';99650;;;33;32
30343;BME280;17145;49.902;8.680;'2023-06-22 14:25:12';99660;;;33;31
30343;BME280;17145;49.902;8.680;'2023-06-22 14:27:39';99650;;;33;31
30343;BME280;17145;49.902;8.680;'2023-06-22 14:30:08';99640;;;33;31
30343;BME280;17145;49.902;8.680;'2023-06-22 14:32:36';99640;;;33;31
30343;BME280;17145;49.902;8.680;'2023-06-22 14:35:03';99630;;;33;30
30343;BME280;17145;49.902;8.680;'2023-06-22 14:37:31';99630;;;33;31
30343;BME280;17145;49.902;8.680;'2023-06-22 14:39:58';99620;;;33;31
30343;BME280;17145;49.902;8.680;'2023-06-22 14:42:26';99620;;;34;31
30343;BME280;17145;49.902;8.680;'2023-06-22 14:44:53';99620;;;34;31
30343;BME280;17145;49.902;8.680;'2023-06-22 14:47:21';99630;;;34;31
30343;BME280;17145;49.902;8.680;'2023-06-22 14:49:48';99630;;;34;31
30343;BME280;17145;49.902;8.680;'2023-06-22 14:52:15';99640;;;34;31
30343;BME280;17145;49.902;8.680;'2023-06-22 14:54:43';99630;;;34;29
30343;BME280;17145;49.902;8.680;'2023-06-22 14:57:10';99630;;;34;30
30343;BME280;17145;49.902;8.680;'2023-06-22 14:59:38';99630;;;33;30
30343;BME280;17145;49.902;8.680;'2023-06-22 15:02:05';99640;;;34;31
30343;BME280;17145;49.902;8.680;'2023-06-22 15:04:33';99630;;;34;31
30343;BME280;17145;49.902;8.680;'2023-06-22 15:07:00';99620;;;34;30
30343;BME280;17145;49.902;8.680;'2023-06-22 15:09:27';99620;;;34;30
30343;BME280;17145;49.902;8.680;'2023-06-22 15:11:55';99620;;;34;30
30343;BME280;17145;49.902;8.680;'2023-06-22 15:14:22';99600;;;34;30
30343;BME280;17145;49.902;8.680;'2023-06-22 15:16:50';99600;;;35;29
30343;BME280;17145;49.902;8.680;'2023-06-22 15:19:18';99590;;;35;28
30343;BME280;17145;49.902;8.680;'2023-06-22 15:21:45';99590;;;35;28
30343;BME280;17145;49.902;8.680;'2023-06-22 15:24:13';99580;;;35;28
30343;BME280;17145;49.902;8.680;'2023-06-22 15:26:40';99580;;;35;27
30343;BME280;17145;49.902;8.680;'2023-06-22 15:29:08';99580;;;35;27
30343;BME280;17145;49.902;8.680;'2023-06-22 15:31:35';99580;;;35;27
30343;BME280;17145;49.902;8.680;'2023-06-22 15:34:02';99590;;;35;27
30343;BME280;17145;49.902;8.680;'2023-06-22 15:36:30';99580;;;36;25
30343;BME280;17145;49.902;8.680;'2023-06-22 15:38:57';99580;;;36;26
30343;BME280;17145;49.902;8.680;'2023-06-22 15:41:24';99580;;;36;26
30343;BME280;17145;49.902;8.680;'2023-06-22 15:43:52';99580;;;36;24
30343;BME280;17145;49.902;8.680;'2023-06-22 15:46:20';99570;;;36;24
30343;BME280;17145;49.902;8.680;'2023-06-22 15:48:47';99570;;;36;24
30343;BME280;17145;49.902;8.680;'2023-06-22 15:51:14';99560;;;36;23
30343;BME280;17145;49.902;8.680;'2023-06-22 15:53:42';99550;;;36;23
30343;BME280;17145;49.902;8.680;'2023-06-22 15:56:09';99550;;;36;24
30343;BME280;17145;49.902;8.680;'2023-06-22 15:58:36';99540;;;36;23
30343;BME280;17145;49.902;8.680;'2023-06-22 16:01:04';99540;;;37;24
30343;BME280;17145;49.902;8.680;'2023-06-22 16:03:32';99530;;;37;23
30343;BME280;17145;49.902;8.680;'2023-06-22 16:05:59';99520;;;37;22
30343;BME280;17145;49.902;8.680;'2023-06-22 16:08:26';99500;;;37;22
30343;BME280;17145;49.902;8.680;'2023-06-22 16:10:54';99500;;;37;22
30343;BME280;17145;49.902;8.680;'2023-06-22 16:13:22';99490;;;37;22
30343;BME280;17145;49.902;8.680;'2023-06-22 16:15:50';99470;;;37;22
30343;BME280;17145;49.902;8.680;'2023-06-22 16:18:18';99470;;;37;21
30343;BME280;17145;49.902;8.680;'2023-06-22 16:20:45';99470;;;37;21